createdAt,value
2023-02-11T00:00:42.911Z,-7.93
2023-02-11T00:03:10.604Z,-7.95
2023-02-11T00:05:37.910Z,-7.83
2023-02-11T00:08:05.578Z,-7.86
2023-02-11T00:10:33.212Z,-8.02
2023-02-11T00:13:00.469Z,-8.08
2023-02-11T00:15:27.987Z,-8.07
2023-02-11T00:17:56.194Z,-8.15
2023-02-11T00:20:23.413Z,-8.26
2023-02-11T00:22:50.732Z,-8.07
2023-02-11T00:25:18.435Z,-8.36
2023-02-11T00:27:45.759Z,-8.12
2023-02-11T00:30:13.586Z,-8.20
2023-02-11T00:32:42.799Z,-8.22
2023-02-11T00:35:10.115Z,-8.30
2023-02-11T00:37:39.290Z,-8.51
2023-02-11T00:40:07.455Z,-8.23
2023-02-11T00:42:35.798Z,-8.15
2023-02-11T00:45:03.569Z,-8.28
2023-02-11T00:47:31.221Z,-8.48
2023-02-11T00:50:01.299Z,-8.40
2023-02-11T00:52:30.052Z,-8.41
2023-02-11T00:54:57.724Z,-8.67
2023-02-11T00:57:25.136Z,-8.55
2023-02-11T00:59:52.376Z,-8.83
2023-02-11T01:02:19.974Z,-8.67
2023-02-11T01:04:47.427Z,-8.69
2023-02-11T01:07:14.827Z,-8.72
2023-02-11T01:09:42.480Z,-8.65
2023-02-11T01:12:09.834Z,-8.57
2023-02-11T01:14:37.165Z,-8.65
2023-02-11T01:17:06.350Z,-8.71
2023-02-11T01:19:33.886Z,-8.71
2023-02-11T01:22:01.481Z,-8.65
2023-02-11T01:24:29.254Z,-8.50
2023-02-11T01:26:57.140Z,-8.83
2023-02-11T01:29:24.719Z,-8.82
2023-02-11T01:31:54.881Z,-8.79
2023-02-11T01:34:22.174Z,-9.02
2023-02-11T01:36:50.384Z,-9.12
2023-02-11T01:39:17.979Z,-9.10
2023-02-11T01:41:46.902Z,-8.92
2023-02-11T01:44:36.742Z,-8.92
2023-02-11T01:47:06.830Z,-8.76
2023-02-11T01:49:41.793Z,-8.80
2023-02-11T01:52:19.286Z,-9.00
2023-02-11T01:55:10.063Z,-9.26
2023-02-11T01:57:41.864Z,-9.22
2023-02-11T02:00:09.278Z,-9.04
2023-02-11T02:02:44.627Z,-9.15
2023-02-11T02:05:58.169Z,-9.08
2023-02-11T02:08:32.336Z,-9.09
2023-02-11T02:11:03.216Z,-9.27
2023-02-11T02:13:32.762Z,-9.28
2023-02-11T02:16:06.653Z,-9.32
2023-02-11T02:18:35.056Z,-9.36
2023-02-11T02:21:45.097Z,-9.40
2023-02-11T02:24:49.484Z,-9.24
2023-02-11T02:27:42.454Z,-9.45
2023-02-11T02:30:42.150Z,-9.37
2023-02-11T02:33:22.805Z,-9.44
2023-02-11T02:36:24.428Z,-9.58
2023-02-11T02:39:01.263Z,-9.64
2023-02-11T02:41:32.689Z,-9.66
2023-02-11T02:44:00.762Z,-9.51
2023-02-11T02:46:30.616Z,-9.59
2023-02-11T02:48:58.830Z,-10.14
2023-02-11T02:51:48.266Z,-9.91
2023-02-11T02:54:46.681Z,-9.95
2023-02-11T02:57:26.431Z,-9.73
2023-02-11T03:00:29.979Z,-9.72
2023-02-11T03:03:16.442Z,-9.84
2023-02-11T03:06:05.220Z,-9.90
2023-02-11T03:08:36.775Z,-9.99
2023-02-11T03:11:06.643Z,-9.93
2023-02-11T03:13:36.949Z,-10.04
2023-02-11T03:16:11.831Z,-9.93
2023-02-11T03:18:46.536Z,-9.75
2023-02-11T03:21:16.414Z,-9.88
2023-02-11T03:23:55.315Z,-9.97
2023-02-11T03:26:34.668Z,-10.06
2023-02-11T03:29:32.263Z,-9.88
2023-02-11T03:32:17.617Z,-9.84
2023-02-11T03:35:00.416Z,-9.97
2023-02-11T03:37:36.841Z,-10.12
2023-02-11T03:40:12.239Z,-10.02
2023-02-11T03:43:12.916Z,-10.13
2023-02-11T03:45:42.173Z,-10.26
2023-02-11T03:48:16.251Z,-10.24
2023-02-11T03:50:46.649Z,-10.01
2023-02-11T03:53:15.255Z,-10.10
2023-02-11T03:55:44.077Z,-10.13
2023-02-11T03:58:11.760Z,-10.14
2023-02-11T04:00:41.578Z,-10.02
2023-02-11T04:03:10.596Z,-10.41
2023-02-11T04:05:38.076Z,-10.22
2023-02-11T04:08:05.798Z,-10.11
2023-02-11T04:10:33.512Z,-10.36
2023-02-11T04:13:00.742Z,-10.15
2023-02-11T04:15:28.029Z,-10.12
2023-02-11T04:17:55.716Z,-10.24
2023-02-11T04:20:23.153Z,-10.32
2023-02-11T04:22:50.481Z,-10.24
2023-02-11T04:25:18.136Z,-10.39
2023-02-11T04:27:45.409Z,-10.47
2023-02-11T04:30:13.438Z,-10.56
2023-02-11T04:32:41.102Z,-10.41
2023-02-11T04:35:08.794Z,-10.15
2023-02-11T04:37:36.104Z,-10.35
2023-02-11T04:40:04.696Z,-10.49
2023-02-11T04:42:32.051Z,-10.55
2023-02-11T04:44:59.397Z,-10.70
2023-02-11T04:47:27.069Z,-10.61
2023-02-11T04:49:54.531Z,-10.52
2023-02-11T04:52:21.865Z,-10.55
2023-02-11T04:54:49.582Z,-10.65
2023-02-11T04:57:17.037Z,-10.64
2023-02-11T04:59:44.407Z,-10.70
2023-02-11T05:02:12.065Z,-10.76
2023-02-11T05:04:39.422Z,-10.65
2023-02-11T05:07:06.839Z,-10.65
2023-02-11T05:09:34.455Z,-10.64
2023-02-11T05:12:01.799Z,-10.70
2023-02-11T05:14:29.053Z,-10.69
2023-02-11T05:16:56.683Z,-10.88
2023-02-11T05:19:24.033Z,-10.89
2023-02-11T05:22:02.176Z,-10.93
2023-02-11T05:24:31.561Z,-10.94
2023-02-11T05:26:58.974Z,-10.89
2023-02-11T05:29:26.328Z,-11.00
2023-02-11T05:31:54.101Z,-10.71
2023-02-11T05:34:21.498Z,-10.74
2023-02-11T05:36:48.746Z,-10.70
2023-02-11T05:39:16.436Z,-10.79
2023-02-11T05:41:43.900Z,-10.76
2023-02-11T05:44:11.464Z,-10.96
2023-02-11T05:46:39.253Z,-10.94
2023-02-11T05:49:06.649Z,-10.99
2023-02-11T05:51:34.083Z,-10.94
2023-02-11T05:54:01.901Z,-10.76
2023-02-11T05:56:29.213Z,-10.82
2023-02-11T05:58:58.473Z,-10.71
2023-02-11T06:01:26.959Z,-10.74
2023-02-11T06:03:55.227Z,-10.70
2023-02-11T06:06:22.582Z,-10.50
2023-02-11T06:08:50.018Z,-10.67
2023-02-11T06:11:18.102Z,-10.74
2023-02-11T06:13:45.518Z,-10.78
2023-02-11T06:16:12.924Z,-10.60
2023-02-11T06:18:40.654Z,-10.62
2023-02-11T06:21:12.390Z,-10.45
2023-02-11T06:23:39.938Z,-10.44
2023-02-11T06:26:09.704Z,-10.46
2023-02-11T06:28:39.333Z,-10.45
2023-02-11T06:31:09.940Z,-10.26
2023-02-11T06:33:38.183Z,-10.07
2023-02-11T06:36:12.806Z,-9.99
2023-02-11T06:38:40.674Z,-9.96
2023-02-11T06:41:13.665Z,-9.89
2023-02-11T06:43:42.061Z,-9.68
2023-02-11T06:46:09.919Z,-9.41
2023-02-11T06:48:37.322Z,-9.36
2023-02-11T06:51:07.434Z,-9.21
2023-02-11T06:53:41.417Z,-9.01
2023-02-11T06:56:12.862Z,-9.88
2023-02-11T06:58:40.175Z,-9.61
2023-02-11T07:01:09.499Z,-9.08
2023-02-11T07:03:39.542Z,-8.71
2023-02-11T07:06:08.489Z,-8.47
2023-02-11T07:08:36.777Z,-8.40
2023-02-11T07:11:12.597Z,-8.20
2023-02-11T07:13:40.095Z,-8.06
2023-02-11T07:16:14.067Z,-7.97
2023-02-11T07:18:41.811Z,-7.59
2023-02-11T07:21:11.980Z,-7.28
2023-02-11T07:23:42.512Z,-7.17
2023-02-11T07:26:14.719Z,-7.27
2023-02-11T07:28:42.752Z,-6.94
2023-02-11T07:31:18.726Z,-6.70
2023-02-11T07:33:46.412Z,-6.54
2023-02-11T07:36:15.804Z,-6.49
2023-02-11T07:38:43.393Z,-6.39
2023-02-11T07:41:13.691Z,-6.55
2023-02-11T07:43:42.364Z,-6.00
2023-02-11T07:46:16.990Z,-5.72
2023-02-11T07:48:44.854Z,-5.99
2023-02-11T07:51:23.524Z,-5.60
2023-02-11T07:53:52.299Z,-5.56
2023-02-11T07:56:20.666Z,-5.42
2023-02-11T07:58:49.000Z,-5.19
2023-02-11T08:01:25.239Z,-4.89
2023-02-11T08:03:54.057Z,-4.82
2023-02-11T08:06:23.055Z,-4.55
2023-02-11T08:08:50.818Z,-4.29
2023-02-11T08:11:21.639Z,-3.90
2023-02-11T08:13:49.081Z,-3.37
2023-02-11T08:16:31.741Z,-3.03
2023-02-11T08:19:01.950Z,-2.85
2023-02-11T08:21:29.856Z,-2.38
2023-02-11T08:23:57.467Z,-2.32
2023-02-11T08:26:28.526Z,-1.84
2023-02-11T08:28:57.723Z,-2.27
2023-02-11T08:31:31.253Z,-1.77
2023-02-11T08:33:59.145Z,-1.58
2023-02-11T08:36:32.529Z,-1.43
2023-02-11T08:39:18.202Z,-1.14
2023-02-11T08:41:53.155Z,-0.95
2023-02-11T08:44:21.620Z,-0.41
2023-02-11T08:46:50.421Z,-0.37
2023-02-11T08:49:18.154Z,-0.17
2023-02-11T08:51:46.486Z,0.06
2023-02-11T08:54:14.838Z,0.04
2023-02-11T08:56:42.223Z,-0.01
2023-02-11T08:59:13.843Z,0.01
2023-02-11T09:01:41.784Z,0.04
2023-02-11T09:04:10.752Z,0.06
2023-02-11T09:06:38.092Z,0.13
2023-02-11T09:09:06.032Z,0.28
2023-02-11T09:11:35.864Z,0.44
2023-02-11T09:14:05.061Z,0.11
2023-02-11T09:16:36.741Z,0.52
2023-02-11T09:19:05.798Z,0.56
2023-02-11T09:21:33.416Z,0.89
2023-02-11T09:24:00.805Z,1.12
2023-02-11T09:26:35.320Z,1.13
2023-02-11T09:29:04.883Z,1.34
2023-02-11T09:31:34.011Z,1.33
2023-02-11T09:34:05.959Z,1.76
2023-02-11T09:36:39.151Z,1.89
2023-02-11T09:39:17.148Z,1.97
2023-02-11T09:42:09.837Z,2.28
2023-02-11T09:44:38.847Z,2.73
2023-02-11T09:47:30.576Z,2.90
2023-02-11T09:50:04.430Z,2.79
2023-02-11T09:52:49.178Z,3.06
2023-02-11T09:55:25.350Z,3.13
2023-02-11T09:57:53.285Z,3.24
2023-02-11T10:00:27.747Z,3.38
2023-02-11T10:03:04.131Z,3.35
2023-02-11T10:05:34.175Z,3.45
2023-02-11T10:08:14.624Z,3.45
2023-02-11T10:10:59.097Z,3.66
2023-02-11T10:13:29.902Z,3.85
2023-02-11T10:16:10.463Z,3.72
2023-02-11T10:18:41.641Z,3.67
2023-02-11T10:21:33.015Z,3.26
2023-02-11T10:24:05.696Z,3.08
2023-02-11T10:26:34.617Z,3.01
2023-02-11T10:29:11.767Z,2.87
2023-02-11T10:31:45.222Z,2.96
2023-02-11T10:34:14.979Z,2.90
2023-02-11T10:36:43.130Z,3.18
2023-02-11T10:39:12.904Z,3.25
2023-02-11T10:42:03.220Z,3.51
2023-02-11T10:44:46.094Z,3.68
2023-02-11T10:47:22.586Z,3.68
2023-02-11T10:49:50.203Z,3.70
2023-02-11T10:52:17.877Z,4.30
2023-02-11T10:55:27.973Z,4.42
2023-02-11T10:58:03.661Z,4.57
2023-02-11T11:00:43.437Z,4.78
2023-02-11T11:03:25.737Z,4.97
2023-02-11T11:06:02.074Z,5.01
2023-02-11T11:08:49.916Z,5.23
2023-02-11T11:11:22.404Z,5.08
2023-02-11T11:13:53.046Z,5.16
2023-02-11T11:16:32.503Z,5.14
2023-02-11T11:19:24.569Z,5.81
2023-02-11T11:21:54.287Z,6.24
2023-02-11T11:24:34.776Z,5.24
2023-02-11T11:27:04.517Z,5.17
2023-02-11T11:29:39.623Z,4.68
2023-02-11T11:32:15.704Z,4.26
2023-02-11T11:34:50.887Z,4.10
2023-02-11T11:37:28.939Z,3.89
2023-02-11T11:40:01.800Z,4.13
2023-02-11T11:42:30.593Z,3.94
2023-02-11T11:45:25.940Z,3.95
2023-02-11T11:47:59.959Z,4.34
2023-02-11T11:50:45.095Z,4.27
2023-02-11T11:53:44.817Z,4.24
2023-02-11T11:56:27.721Z,4.35
2023-02-11T11:58:55.163Z,3.95
2023-02-11T12:01:58.325Z,4.45
2023-02-11T12:04:35.035Z,4.25
2023-02-11T12:07:30.350Z,4.35
2023-02-11T12:10:26.737Z,4.13
2023-02-11T12:13:18.781Z,4.21
2023-02-11T12:15:58.722Z,4.67
2023-02-11T12:18:49.344Z,4.95
2023-02-11T12:21:23.096Z,4.89
2023-02-11T12:24:16.941Z,4.68
2023-02-11T12:26:53.236Z,5.14
2023-02-11T12:29:49.041Z,5.27
2023-02-11T12:32:36.602Z,4.79
2023-02-11T12:35:21.057Z,4.59
2023-02-11T12:38:36.999Z,4.44
2023-02-11T12:42:04.319Z,4.45
2023-02-11T12:44:56.231Z,4.42
2023-02-11T12:48:03.176Z,4.51
2023-02-11T12:50:55.167Z,4.94
2023-02-11T12:53:34.406Z,5.02
2023-02-11T12:56:53.202Z,5.17
2023-02-11T12:59:55.593Z,5.13
2023-02-11T13:02:54.657Z,5.36
2023-02-11T13:05:32.315Z,4.94
2023-02-11T13:08:41.528Z,4.83
2023-02-11T13:11:15.192Z,4.73
2023-02-11T13:13:45.580Z,5.09
2023-02-11T13:16:37.044Z,4.99
2023-02-11T13:19:13.920Z,5.02
2023-02-11T13:22:06.220Z,5.07
2023-02-11T13:24:49.601Z,5.35
2023-02-11T13:27:30.192Z,5.56
2023-02-11T13:30:14.171Z,5.44
2023-02-11T13:32:56.853Z,5.68
2023-02-11T13:35:56.742Z,6.14
2023-02-11T13:38:29.807Z,6.19
2023-02-11T13:41:18.483Z,6.25
2023-02-11T13:44:01.777Z,6.37
2023-02-11T13:46:50.101Z,7.06
2023-02-11T13:49:28.174Z,6.85
2023-02-11T13:51:57.395Z,6.76
2023-02-11T13:54:33.546Z,6.47
2023-02-11T13:57:16.682Z,6.45
2023-02-11T13:59:47.379Z,7.02
2023-02-11T14:02:49.623Z,6.89
2023-02-11T14:05:43.555Z,7.43
2023-02-11T14:08:29.277Z,7.66
2023-02-11T14:10:58.570Z,8.36
2023-02-11T14:13:29.061Z,8.97
2023-02-11T14:16:14.006Z,9.57
2023-02-11T14:18:47.427Z,9.72
2023-02-11T14:21:33.416Z,11.01
2023-02-11T14:24:05.191Z,11.71
2023-02-11T14:26:59.392Z,12.30
2023-02-11T14:29:35.207Z,13.59
2023-02-11T14:32:26.675Z,14.07
2023-02-11T14:34:54.069Z,13.98
2023-02-11T14:37:50.923Z,13.58
2023-02-11T14:40:42.112Z,14.39
2023-02-11T14:43:17.120Z,15.26
2023-02-11T14:45:50.329Z,14.43
2023-02-11T14:48:20.256Z,14.81
2023-02-11T14:50:59.374Z,14.34
2023-02-11T14:53:30.739Z,12.93
2023-02-11T14:55:59.512Z,10.96
2023-02-11T14:58:32.678Z,9.62
2023-02-11T15:01:03.984Z,8.64
2023-02-11T15:03:37.844Z,7.62
2023-02-11T15:06:07.537Z,6.69
2023-02-11T15:08:38.493Z,6.11
2023-02-11T15:11:12.232Z,5.69
2023-02-11T15:13:47.579Z,5.63
2023-02-11T15:16:19.898Z,5.27
2023-02-11T15:18:54.361Z,5.21
2023-02-11T15:21:28.061Z,4.82
2023-02-11T15:24:06.381Z,4.76
2023-02-11T15:26:34.439Z,4.77
2023-02-11T15:29:02.149Z,4.45
2023-02-11T15:31:30.726Z,4.42
2023-02-11T15:34:07.915Z,4.17
2023-02-11T15:36:36.564Z,4.38
2023-02-11T15:39:29.484Z,4.24
2023-02-11T15:41:57.540Z,4.14
2023-02-11T15:44:30.792Z,3.84
2023-02-11T15:46:59.276Z,3.62
2023-02-11T15:49:27.125Z,3.49
2023-02-11T15:51:57.401Z,3.39
2023-02-11T15:54:29.641Z,3.18
2023-02-11T15:57:04.053Z,3.20
2023-02-11T15:59:40.796Z,3.32
2023-02-11T16:02:17.377Z,2.94
2023-02-11T16:04:52.146Z,2.78
2023-02-11T16:07:37.994Z,2.86
2023-02-11T16:10:22.593Z,2.50
2023-02-11T16:12:53.680Z,2.57
2023-02-11T16:15:34.053Z,2.56
2023-02-11T16:18:03.754Z,2.21
2023-02-11T16:20:32.169Z,2.06
2023-02-11T16:23:00.002Z,1.97
2023-02-11T16:25:27.384Z,1.86
2023-02-11T16:27:55.179Z,1.82
2023-02-11T16:30:40.780Z,1.68
2023-02-11T16:33:11.184Z,1.55
2023-02-11T16:35:38.778Z,1.47
2023-02-11T16:38:06.517Z,1.29
2023-02-11T16:40:34.311Z,1.26
2023-02-11T16:43:01.781Z,1.18
2023-02-11T16:45:29.168Z,1.13
2023-02-11T16:47:56.854Z,0.96
2023-02-11T16:50:25.625Z,0.94
2023-02-11T16:52:53.102Z,0.82
2023-02-11T16:55:22.058Z,0.78
2023-02-11T16:57:49.992Z,0.58
2023-02-11T17:00:18.240Z,0.47
2023-02-11T17:02:46.133Z,0.66
2023-02-11T17:05:25.282Z,0.65
2023-02-11T17:07:52.797Z,0.67
2023-02-11T17:10:22.668Z,0.40
2023-02-11T17:12:51.530Z,0.53
2023-02-11T17:15:19.598Z,0.30
2023-02-11T17:17:46.871Z,0.35
2023-02-11T17:20:15.052Z,0.32
2023-02-11T17:22:42.764Z,0.08
2023-02-11T17:25:10.782Z,0.10
2023-02-11T17:27:40.643Z,0.05
2023-02-11T17:30:09.124Z,-0.12
2023-02-11T17:32:37.428Z,-0.02
2023-02-11T17:35:07.755Z,-0.25
2023-02-11T17:37:35.576Z,-0.33
2023-02-11T17:40:02.948Z,-0.29
2023-02-11T17:42:33.752Z,-0.56
2023-02-11T17:45:01.439Z,-0.40
2023-02-11T17:47:32.160Z,-0.51
2023-02-11T17:49:59.839Z,-0.59
2023-02-11T17:52:28.346Z,-0.60
2023-02-11T17:54:56.209Z,-0.66
2023-02-11T17:57:23.567Z,-0.71
2023-02-11T17:59:51.784Z,-0.81
2023-02-11T18:02:19.194Z,-0.94
2023-02-11T18:04:46.914Z,-0.89
2023-02-11T18:07:14.547Z,-0.95
2023-02-11T18:09:42.347Z,-1.06
2023-02-11T18:12:10.997Z,-1.17
2023-02-11T18:14:40.608Z,-1.31
2023-02-11T18:17:08.165Z,-1.39
2023-02-11T18:19:36.791Z,-1.35
2023-02-11T18:22:04.545Z,-1.36
2023-02-11T18:24:31.936Z,-1.36
2023-02-11T18:26:59.817Z,-1.52
2023-02-11T18:29:27.590Z,-1.57
2023-02-11T18:31:56.897Z,-1.44
2023-02-11T18:34:25.660Z,-1.46
2023-02-11T18:36:53.201Z,-1.34
2023-02-11T18:39:24.400Z,-1.59
2023-02-11T18:41:55.374Z,-1.60
2023-02-11T18:44:24.974Z,-1.68
2023-02-11T18:46:54.295Z,-1.56
2023-02-11T18:49:21.712Z,-1.61
2023-02-11T18:51:49.057Z,-1.68
2023-02-11T18:54:16.812Z,-1.75
2023-02-11T18:56:44.321Z,-1.97
2023-02-11T18:59:12.716Z,-1.95
2023-02-11T19:01:43.429Z,-1.93
2023-02-11T19:04:11.594Z,-2.00
2023-02-11T19:06:39.195Z,-2.38
2023-02-11T19:09:10.089Z,-2.50
2023-02-11T19:11:49.982Z,-2.30
2023-02-11T19:14:32.162Z,-2.40
2023-02-11T19:17:01.766Z,-2.53
2023-02-11T19:19:32.716Z,-2.18
2023-02-11T19:22:00.796Z,-2.46
2023-02-11T19:24:29.574Z,-2.63
2023-02-11T19:27:00.663Z,-2.50
2023-02-11T19:29:29.405Z,-3.01
2023-02-11T19:31:57.378Z,-3.24
2023-02-11T19:34:24.963Z,-3.03
2023-02-11T19:36:53.531Z,-3.24
2023-02-11T19:39:21.411Z,-3.13
2023-02-11T19:41:48.948Z,-3.11
2023-02-11T19:44:16.850Z,-3.04
2023-02-11T19:46:46.135Z,-3.10
2023-02-11T19:49:23.260Z,-3.32
2023-02-11T19:51:52.568Z,-3.21
2023-02-11T19:54:20.828Z,-3.26
2023-02-11T19:56:49.562Z,-3.20
2023-02-11T19:59:18.128Z,-3.06
2023-02-11T20:01:47.877Z,-3.23
2023-02-11T20:04:17.322Z,-3.25
2023-02-11T20:06:45.188Z,-3.42
2023-02-11T20:09:15.082Z,-3.44
2023-02-11T20:11:42.989Z,-3.31
2023-02-11T20:14:14.875Z,-3.43
2023-02-11T20:16:49.095Z,-3.42
2023-02-11T20:19:19.700Z,-3.52
2023-02-11T20:21:49.342Z,-3.58
2023-02-11T20:24:19.120Z,-3.39
2023-02-11T20:26:48.789Z,-3.47
2023-02-11T20:29:19.421Z,-3.46
2023-02-11T20:31:49.697Z,-3.80
2023-02-11T20:34:18.034Z,-3.77
2023-02-11T20:36:53.029Z,-3.64
2023-02-11T20:39:23.589Z,-3.87
2023-02-11T20:41:51.965Z,-4.12
2023-02-11T20:44:21.908Z,-3.80
2023-02-11T20:46:50.781Z,-3.95
2023-02-11T20:49:21.685Z,-3.77
2023-02-11T20:51:49.800Z,-4.06
2023-02-11T20:54:20.337Z,-4.04
2023-02-11T20:56:48.504Z,-4.30
2023-02-11T20:59:17.037Z,-4.24
2023-02-11T21:01:47.958Z,-4.32
2023-02-11T21:04:24.526Z,-4.41
2023-02-11T21:06:55.207Z,-4.40
2023-02-11T21:09:25.996Z,-5.09
2023-02-11T21:11:54.404Z,-4.86
2023-02-11T21:14:24.193Z,-4.83
2023-02-11T21:16:52.225Z,-4.82
2023-02-11T21:19:20.430Z,-4.80
2023-02-11T21:21:48.098Z,-4.83
2023-02-11T21:24:15.862Z,-4.72
2023-02-11T21:26:43.892Z,-4.85
2023-02-11T21:29:12.029Z,-4.51
2023-02-11T21:31:40.239Z,-4.55
2023-02-11T21:34:08.421Z,-4.77
2023-02-11T21:36:35.923Z,-4.86
2023-02-11T21:39:04.420Z,-4.42
2023-02-11T21:41:32.140Z,-4.65
2023-02-11T21:43:59.680Z,-4.99
2023-02-11T21:46:28.197Z,-4.87
2023-02-11T21:48:56.859Z,-5.00
2023-02-11T21:51:25.867Z,-4.71
2023-02-11T21:53:55.153Z,-4.57
2023-02-11T21:56:24.835Z,-4.93
2023-02-11T21:58:52.941Z,-4.88
2023-02-11T22:01:31.870Z,-5.06
2023-02-11T22:03:59.609Z,-4.84
2023-02-11T22:06:31.201Z,-4.92
2023-02-11T22:09:02.168Z,-4.93
2023-02-11T22:11:29.908Z,-4.96
2023-02-11T22:13:58.020Z,-4.94
2023-02-11T22:16:27.140Z,-4.83
2023-02-11T22:18:57.020Z,-4.62
2023-02-11T22:21:25.151Z,-4.84
2023-02-11T22:23:54.643Z,-4.81
2023-02-11T22:26:24.012Z,-4.94
2023-02-11T22:28:52.726Z,-5.37
2023-02-11T22:31:24.411Z,-5.06
2023-02-11T22:33:52.317Z,-5.05
2023-02-11T22:36:29.404Z,-4.82
2023-02-11T22:39:01.629Z,-4.87
2023-02-11T22:41:29.211Z,-4.98
2023-02-11T22:43:56.945Z,-4.91
2023-02-11T22:46:24.441Z,-4.87
2023-02-11T22:48:52.564Z,-5.04
2023-02-11T22:51:25.968Z,-5.12
2023-02-11T22:53:58.967Z,-5.33
2023-02-11T22:56:28.033Z,-5.31
2023-02-11T22:59:00.074Z,-5.25
2023-02-11T23:01:29.554Z,-5.24
2023-02-11T23:03:58.916Z,-5.01
2023-02-11T23:06:26.136Z,-5.04
2023-02-11T23:08:54.150Z,-5.16
2023-02-11T23:11:25.675Z,-5.07
2023-02-11T23:13:54.082Z,-4.83
2023-02-11T23:16:25.896Z,-5.51
2023-02-11T23:18:54.961Z,-5.13
2023-02-11T23:21:25.301Z,-5.21
2023-02-11T23:24:02.048Z,-5.28
2023-02-11T23:26:30.002Z,-5.39
2023-02-11T23:28:59.058Z,-5.14
2023-02-11T23:31:30.117Z,-5.17
2023-02-11T23:33:57.855Z,-5.35
2023-02-11T23:36:25.282Z,-5.32
2023-02-11T23:38:52.644Z,-5.31
2023-02-11T23:41:20.860Z,-5.12
2023-02-11T23:43:53.516Z,-5.04
2023-02-11T23:46:22.297Z,-5.08
2023-02-11T23:48:52.093Z,-5.30
2023-02-11T23:51:20.391Z,-5.46
2023-02-11T23:53:49.472Z,-5.18
2023-02-11T23:56:22.789Z,-4.90
2023-02-11T23:58:52.344Z,-5.15
